createdAt,value
2023-01-19T00:04:59.829Z,2.84
2023-01-19T00:10:03.634Z,2.71
2023-01-19T00:15:08.370Z,2.62
2023-01-19T00:21:08.618Z,2.73
2023-01-19T00:26:12.459Z,2.77
2023-01-19T00:31:16.124Z,2.83
2023-01-19T00:36:20.197Z,2.92
2023-01-19T00:42:01.396Z,3.00
2023-01-19T00:47:05.945Z,3.02
2023-01-19T00:52:09.681Z,2.94
2023-01-19T00:57:13.706Z,2.94
2023-01-19T01:02:17.520Z,2.94
2023-01-19T01:07:25.170Z,2.92
2023-01-19T01:12:29.061Z,2.88
2023-01-19T01:17:32.936Z,2.79
2023-01-19T01:22:36.714Z,2.76
2023-01-19T01:27:40.539Z,2.76
2023-01-19T01:32:44.266Z,2.80
2023-01-19T01:37:47.992Z,2.81
2023-01-19T01:42:51.704Z,2.76
2023-01-19T01:48:02.327Z,2.72
2023-01-19T01:53:16.361Z,2.58
2023-01-19T01:58:20.076Z,2.52
2023-01-19T02:03:25.894Z,2.56
2023-01-19T02:09:26.657Z,2.54
2023-01-19T02:14:30.271Z,2.56
2023-01-19T02:19:44.202Z,2.53
2023-01-19T02:31:40.491Z,2.45
2023-01-19T02:37:03.774Z,2.44
2023-01-19T02:52:47.559Z,2.36
2023-01-19T02:58:09.147Z,2.37
2023-01-19T03:03:43.083Z,2.36
2023-01-19T03:09:29.980Z,2.32
2023-01-19T03:14:41.982Z,2.29
2023-01-19T03:19:50.853Z,2.33
2023-01-19T03:25:01.705Z,2.35
2023-01-19T03:30:15.830Z,2.45
2023-01-19T03:35:24.264Z,2.54
2023-01-19T03:40:32.495Z,2.63
2023-01-19T03:45:40.010Z,2.59
2023-01-19T03:50:43.728Z,2.58
2023-01-19T03:56:21.230Z,2.56
2023-01-19T04:01:26.070Z,2.56
2023-01-19T04:06:29.621Z,2.51
2023-01-19T04:11:33.180Z,2.39
2023-01-19T04:16:36.854Z,2.31
2023-01-19T04:28:44.209Z,2.13
2023-01-19T04:33:47.737Z,2.12
2023-01-19T05:09:19.014Z,2.13
2023-01-19T05:14:58.226Z,2.08
2023-01-19T05:20:02.236Z,2.05
2023-01-19T05:25:24.981Z,1.95
2023-01-19T05:37:49.871Z,1.94
2023-01-19T05:42:53.663Z,1.94
2023-01-19T05:47:57.695Z,1.85
2023-01-19T05:53:03.568Z,1.69
2023-01-19T05:58:07.408Z,1.59
2023-01-19T06:03:11.314Z,1.51
2023-01-19T06:08:15.046Z,1.40
2023-01-19T06:13:18.974Z,1.31
2023-01-19T06:18:22.681Z,1.29
2023-01-19T06:23:30.616Z,1.37
2023-01-19T06:28:34.375Z,1.37
2023-01-19T06:33:37.979Z,1.40
2023-01-19T06:45:46.175Z,1.49
2023-01-19T06:50:50.461Z,1.42
2023-01-19T06:55:54.922Z,1.34
2023-01-19T07:01:36.893Z,1.36
2023-01-19T07:06:40.901Z,1.28
2023-01-19T07:19:14.014Z,1.21
2023-01-19T07:25:08.438Z,1.23
2023-01-19T07:30:31.273Z,1.37
2023-01-19T07:36:02.980Z,1.32
2023-01-19T07:41:10.163Z,1.32
2023-01-19T07:46:39.202Z,1.25
2023-01-19T07:52:01.779Z,1.16
2023-01-19T07:57:36.612Z,1.12
2023-01-19T08:03:18.236Z,1.19
2023-01-19T08:09:58.097Z,1.20
2023-01-19T08:15:01.929Z,1.31
2023-01-19T08:20:32.496Z,1.34
2023-01-19T08:26:52.903Z,1.40
2023-01-19T08:33:14.906Z,1.40
2023-01-19T08:38:46.312Z,1.42
2023-01-19T08:44:13.000Z,1.48
2023-01-19T08:56:22.105Z,1.67
2023-01-19T09:01:26.230Z,1.75
2023-01-19T09:06:34.685Z,1.87
2023-01-19T09:11:57.028Z,1.82
2023-01-19T09:17:26.851Z,1.79
2023-01-19T09:22:30.478Z,1.93
2023-01-19T09:34:44.915Z,2.30
2023-01-19T09:41:05.248Z,2.30
2023-01-19T09:47:02.607Z,2.27
2023-01-19T10:06:36.602Z,2.25
2023-01-19T10:12:19.049Z,2.29
2023-01-19T10:32:13.250Z,2.42
2023-01-19T10:37:32.179Z,2.40
2023-01-19T10:42:38.025Z,2.35
2023-01-19T10:47:43.995Z,2.31
2023-01-19T10:52:53.812Z,2.26
2023-01-19T10:57:59.267Z,2.30
2023-01-19T11:13:15.976Z,2.68
2023-01-19T11:25:49.393Z,2.70
2023-01-19T11:40:14.267Z,2.74
2023-01-19T11:47:01.133Z,2.70
2023-01-19T11:52:15.499Z,2.81
2023-01-19T11:57:50.266Z,2.96
2023-01-19T12:32:31.973Z,2.83
2023-01-19T12:52:48.292Z,2.94
2023-01-19T12:58:15.000Z,2.94
2023-01-19T13:22:06.670Z,2.94
2023-01-19T13:27:41.223Z,2.93
2023-01-19T13:44:52.906Z,2.96
2023-01-19T13:49:59.322Z,2.92
2023-01-19T14:03:52.524Z,2.79
2023-01-19T14:09:19.040Z,2.60
2023-01-19T14:21:45.075Z,2.53
2023-01-19T14:42:16.074Z,2.37
2023-01-19T14:47:35.318Z,2.39
2023-01-19T14:52:42.773Z,2.29
2023-01-19T14:57:47.686Z,2.28
2023-01-19T15:02:51.626Z,2.24
2023-01-19T15:07:57.371Z,2.17
2023-01-19T15:13:01.479Z,2.18
2023-01-19T15:42:53.736Z,1.96
2023-01-19T15:48:11.237Z,2.01
2023-01-19T16:00:43.957Z,2.10
2023-01-19T16:06:37.944Z,2.07
2023-01-19T16:19:26.249Z,2.08
2023-01-19T16:24:29.865Z,2.06
2023-01-19T16:29:52.488Z,2.03
2023-01-19T16:34:56.090Z,2.01
2023-01-19T16:39:59.907Z,2.04
2023-01-19T16:53:42.521Z,1.97
2023-01-19T17:06:42.779Z,1.99
2023-01-19T17:11:47.045Z,2.03
2023-01-19T17:16:50.786Z,2.02
2023-01-19T17:22:44.639Z,1.98
2023-01-19T17:27:48.352Z,1.93
2023-01-19T17:34:18.307Z,1.96
2023-01-19T17:40:18.468Z,1.95
2023-01-19T17:45:48.006Z,1.92
2023-01-19T17:51:11.366Z,1.94
2023-01-19T17:56:41.714Z,1.93
2023-01-19T18:02:04.112Z,1.95
2023-01-19T18:07:10.452Z,2.05
2023-01-19T18:12:33.225Z,2.09
2023-01-19T18:25:11.756Z,2.16
2023-01-19T18:31:13.209Z,2.17
2023-01-19T18:36:36.917Z,2.09
2023-01-19T18:41:44.003Z,2.10
2023-01-19T18:47:06.469Z,2.11
2023-01-19T18:52:35.664Z,2.22
2023-01-19T18:58:34.381Z,2.26
2023-01-19T19:12:52.937Z,2.23
2023-01-19T19:41:04.452Z,2.42
2023-01-19T19:46:23.285Z,2.40
2023-01-19T19:51:31.135Z,2.47
2023-01-19T19:56:37.095Z,2.48
2023-01-19T20:01:44.931Z,2.46
2023-01-19T20:28:21.998Z,2.43
2023-01-19T20:33:25.854Z,2.40
2023-01-19T20:38:29.893Z,2.39
2023-01-19T20:44:55.661Z,2.39
2023-01-19T20:49:59.371Z,2.39
2023-01-19T21:02:19.034Z,2.40
2023-01-19T21:07:22.925Z,2.39
2023-01-19T21:12:26.757Z,2.42
2023-01-19T21:17:30.393Z,2.42
2023-01-19T21:22:34.119Z,2.44
2023-01-19T21:27:38.024Z,2.45
2023-01-19T21:32:42.363Z,2.44
2023-01-19T21:37:46.213Z,2.47
2023-01-19T21:42:49.957Z,2.47
2023-01-19T21:47:53.938Z,2.47
2023-01-19T21:52:58.591Z,2.40
2023-01-19T22:04:54.022Z,2.24
2023-01-19T22:10:02.485Z,2.21
2023-01-19T22:16:51.887Z,2.22
2023-01-19T22:22:02.208Z,2.22
2023-01-19T22:27:12.423Z,2.20
2023-01-19T22:32:17.487Z,2.19
2023-01-19T22:38:56.892Z,2.12
2023-01-19T22:44:51.200Z,2.17
2023-01-19T22:57:02.473Z,2.20
2023-01-19T23:03:22.968Z,2.19
2023-01-19T23:08:52.692Z,2.17
2023-01-19T23:13:58.893Z,2.31
2023-01-19T23:19:28.209Z,2.42
2023-01-19T23:24:32.042Z,2.48
2023-01-19T23:29:54.688Z,2.54
2023-01-19T23:35:49.066Z,2.56
2023-01-19T23:42:14.837Z,2.56
2023-01-19T23:54:45.423Z,2.65
